Time;durP1;ratioP1;P1;durP2;ratioP2;P2;SDS_P1;SDS_P2;PMS_P1;PMS_P2;Temp;Humidity;BMP_temperature;BMP_pressure;BME280_temperature;BME280_humidity;BME280_pressure;Samples;Min_cycle;Max_cycle;Signal;HPM_P1;HPM_P2
2021/08/16 03:30:20;;;;;;;6.83;5.60;;;;;;;25.87;54.85;98250.16;8580052;22;20177;-80
2021/08/16 03:33:42;;;;;;;9.70;5.33;;;;;;;26.37;54.19;98298.56;8572319;23;20185;-79
2021/08/16 03:37:04;;;;;;;7.60;5.27;;;;;;;26.18;54.44;98286.94;8573960;23;20183;-79
2021/08/16 03:40:25;;;;;;;5.93;4.73;;;;;;;24.98;57.82;98279.69;8573007;23;20202;-79
2021/08/16 03:43:47;;;;;;;8.73;5.57;;;;;;;25.33;56.63;98286.34;8574458;23;20189;-79
2021/08/16 03:47:10;;;;;;;7.20;5.43;;;;;;;26.28;54.46;98292.19;8574657;23;20167;-79
2021/08/16 03:50:31;;;;;;;6.37;5.40;;;;;;;26.20;54.55;98284.66;8573909;23;20664;-79
2021/08/16 03:53:53;;;;;;;7.03;5.70;;;;;;;26.38;54.65;98289.97;8580868;23;20632;-79
2021/08/16 03:57:15;;;;;;;6.57;5.90;;;;;;;26.60;53.55;98298.19;8575879;23;20196;-79
2021/08/16 04:00:36;;;;;;;7.90;5.63;;;;;;;25.98;55.43;98298.53;8577728;23;20206;-78
2021/08/16 04:04:01;;;;;;;8.67;6.20;;;;;;;26.20;55.45;98304.81;8574691;23;20186;-79
2021/08/16 04:07:22;;;;;;;8.43;6.30;;;;;;;26.30;54.99;98299.03;8575410;23;20305;-79
2021/08/16 04:10:44;;;;;;;6.13;5.53;;;;;;;25.45;57.35;98306.75;8573854;23;20513;-79
2021/08/16 04:14:06;;;;;;;11.03;5.80;;;;;;;25.04;59.01;98277.63;8573926;23;20551;-79
2021/08/16 04:17:27;;;;;;;8.03;6.57;;;;;;;25.65;57.56;98311.78;8574291;23;20181;-79
2021/08/16 04:20:50;;;;;;;8.10;7.07;;;;;;;25.90;56.76;98302.06;8573168;23;20215;-78
2021/08/16 04:24:12;;;;;;;8.57;6.30;;;;;;;26.01;56.59;98320.03;8587995;23;20182;-79
2021/08/16 04:27:34;;;;;;;10.33;6.23;;;;;;;26.07;56.33;98318.75;8575554;23;20232;-79
2021/08/16 04:30:55;;;;;;;10.20;6.87;;;;;;;26.23;55.87;98312.50;8589994;23;20204;-79
2021/08/16 04:34:17;;;;;;;10.33;7.10;;;;;;;26.21;56.27;98325.00;8616089;23;20659;-79
2021/08/16 04:37:42;;;;;;;7.20;6.60;;;;;;;26.07;56.39;98322.31;8615384;23;20188;-79
2021/08/16 04:41:03;;;;;;;7.73;6.73;;;;;;;26.13;56.42;98331.31;8614361;22;20546;-79
2021/08/16 04:44:25;;;;;;;9.03;7.33;;;;;;;25.86;57.24;98339.69;8615658;23;20189;-79
2021/08/16 04:47:47;;;;;;;10.80;7.17;;;;;;;25.48;57.91;98310.84;8615374;23;20197;-79
2021/08/16 04:51:08;;;;;;;8.70;7.17;;;;;;;25.67;58.15;98350.94;8613981;22;20201;-79
2021/08/16 04:54:31;;;;;;;9.20;7.53;;;;;;;25.93;57.64;98357.50;8615818;23;20181;-80
2021/08/16 04:57:53;;;;;;;13.07;7.90;;;;;;;25.94;57.96;98369.34;8615128;23;20652;-79
2021/08/16 05:01:15;;;;;;;10.80;8.03;;;;;;;25.67;58.64;98367.50;8613169;22;20292;-79
2021/08/16 05:04:36;;;;;;;10.13;8.20;;;;;;;25.58;58.83;98371.31;8614760;23;20183;-79
2021/08/16 05:07:59;;;;;;;10.90;7.73;;;;;;;25.47;58.31;98386.47;8614728;23;20178;-79
2021/08/16 05:11:22;;;;;;;9.10;6.93;;;;;;;24.98;58.79;98384.53;8613572;22;20198;-79
2021/08/16 05:14:44;;;;;;;8.40;7.57;;;;;;;25.33;58.14;98396.75;8614338;23;20192;-79
2021/08/16 05:18:05;;;;;;;7.33;6.60;;;;;;;25.62;57.53;98405.47;8613665;23;20190;-79
2021/08/16 05:21:27;;;;;;;7.70;6.93;;;;;;;25.71;56.92;98398.09;8614192;22;20690;-79
2021/08/16 05:24:48;;;;;;;9.27;6.83;;;;;;;26.03;55.84;98406.16;8614120;23;20182;-79
2021/08/16 05:28:12;;;;;;;9.50;6.80;;;;;;;25.22;57.90;98414.63;8614098;23;20184;-80
2021/08/16 05:31:33;;;;;;;9.47;7.63;;;;;;;25.70;58.04;98413.00;8621862;22;20205;-80
2021/08/16 05:34:55;;;;;;;9.10;7.10;;;;;;;25.64;56.92;98414.25;8623709;23;20181;-79
2021/08/16 05:38:16;;;;;;;8.43;6.30;;;;;;;25.31;57.91;98419.13;8615790;23;20620;-79
2021/08/16 05:41:38;;;;;;;8.57;6.93;;;;;;;25.50;57.22;98410.72;8614891;22;20201;-79
2021/08/16 05:45:03;;;;;;;10.30;7.00;;;;;;;25.64;56.85;98437.16;8621327;23;20180;-80
2021/08/16 05:48:25;;;;;;;7.67;6.30;;;;;;;25.37;57.53;98452.97;8633896;23;20181;-80
2021/08/16 05:51:46;;;;;;;7.20;6.43;;;;;;;25.58;57.21;98443.13;8630112;22;20201;-79
2021/08/16 05:55:09;;;;;;;8.20;7.10;;;;;;;25.94;55.96;98457.75;8614007;23;20184;-79
2021/08/16 05:58:30;;;;;;;8.43;6.43;;;;;;;25.61;56.35;98461.84;8613279;23;20627;-79
2021/08/16 06:01:53;;;;;;;7.87;6.60;;;;;;;25.37;57.00;98461.25;8613938;22;20202;-79
2021/08/16 06:05:15;;;;;;;8.23;6.63;;;;;;;25.21;56.72;98465.44;8613814;23;20554;-78
2021/08/16 06:08:37;;;;;;;10.60;5.83;;;;;;;25.28;56.18;98482.41;8612859;23;20198;-79
2021/08/16 06:11:58;;;;;;;7.83;5.87;;;;;;;25.19;55.87;98475.97;8615718;22;20497;-79
2021/08/16 06:15:20;;;;;;;7.67;5.70;;;;;;;25.59;54.58;98487.00;8623096;23;20178;-80
2021/08/16 06:18:43;;;;;;;7.60;5.90;;;;;;;25.58;54.15;98481.75;8628024;23;20183;-81
2021/08/16 06:22:05;;;;;;;6.20;5.10;;;;;;;25.37;53.98;98486.09;8619415;22;20205;-79
2021/08/16 06:25:26;;;;;;;8.33;5.57;;;;;;;25.74;52.89;98480.31;8615276;23;20185;-80
2021/08/16 06:28:48;;;;;;;7.03;5.50;;;;;;;25.39;52.98;98489.38;8614683;23;20185;-80
2021/08/16 06:32:09;;;;;;;7.80;5.30;;;;;;;25.30;53.52;98472.72;8614714;22;20211;-79
2021/08/16 06:35:35;;;;;;;11.23;5.50;;;;;;;25.57;52.75;98493.94;8614992;23;20178;-79
2021/08/16 06:38:57;;;;;;;7.23;4.93;;;;;;;25.38;52.76;98504.28;8612863;23;20232;-79
2021/08/16 06:42:19;;;;;;;7.20;5.10;;;;;;;25.60;51.40;98505.19;8611232;23;20215;-78
2021/08/16 06:45:41;;;;;;;7.13;4.80;;;;;;;25.41;50.50;98512.78;8613757;23;20533;-79
2021/08/16 06:49:03;;;;;;;7.53;4.53;;;;;;;25.50;50.42;98516.47;8611333;23;20182;-78
2021/08/16 06:52:26;;;;;;;6.10;4.77;;;;;;;25.42;50.47;98530.19;8612836;23;20194;-79
2021/08/16 06:55:48;;;;;;;10.03;4.97;;;;;;;25.57;49.45;98516.88;8613530;23;20185;-78
2021/08/16 06:59:09;;;;;;;4.80;4.30;;;;;;;25.98;48.75;98528.69;8612833;23;20769;-79
2021/08/16 07:02:31;;;;;;;7.53;4.27;;;;;;;27.03;46.49;98531.59;8613183;23;20304;-79
2021/08/16 07:05:53;;;;;;;8.47;4.47;;;;;;;26.73;46.39;98535.13;8613168;23;20178;-79
2021/08/16 07:09:16;;;;;;;7.23;4.43;;;;;;;26.63;47.68;98527.13;8614917;23;20178;-79
2021/08/16 07:12:37;;;;;;;7.10;4.80;;;;;;;26.71;46.96;98528.31;8615908;23;20516;-79
2021/08/16 07:15:59;;;;;;;9.67;4.77;;;;;;;26.36;47.35;98531.94;8615298;23;20182;-79
2021/08/16 07:19:20;;;;;;;6.27;4.20;;;;;;;26.04;47.78;98529.38;8615303;23;20189;-79
2021/08/16 07:22:42;;;;;;;6.80;4.90;;;;;;;26.09;47.09;98526.50;8615953;23;20205;-79
2021/08/16 07:26:06;;;;;;;6.37;4.17;;;;;;;25.91;46.97;98506.19;8615892;23;20192;-79
2021/08/16 07:29:29;;;;;;;6.57;4.00;;;;;;;26.47;45.84;98530.53;8615082;23;20182;-79
2021/08/16 07:32:51;;;;;;;5.33;3.63;;;;;;;25.66;47.38;98531.56;8614937;23;20547;-79
2021/08/16 07:36:13;;;;;;;6.70;4.30;;;;;;;25.58;48.12;98529.53;8629332;23;20185;-82
2021/08/16 07:39:34;;;;;;;11.30;4.13;;;;;;;25.82;47.36;98521.81;8615013;23;20185;-81
2021/08/16 07:42:57;;;;;;;9.73;4.50;;;;;;;26.13;47.12;98527.50;8616120;23;20205;-79
2021/08/16 07:46:19;;;;;;;6.50;4.00;;;;;;;26.08;47.49;98539.47;8615486;23;20185;-79
2021/08/16 07:49:40;;;;;;;5.40;4.30;;;;;;;25.84;48.39;98536.13;8614918;23;20188;-78
2021/08/16 07:53:02;;;;;;;5.50;4.17;;;;;;;25.54;49.32;98539.56;8615224;23;20200;-78
2021/08/16 07:56:24;;;;;;;8.53;4.30;;;;;;;25.98;48.24;98536.97;8614809;23;20189;-78
2021/08/16 07:59:47;;;;;;;5.83;4.07;;;;;;;25.70;48.65;98529.81;8614090;23;20182;-78
2021/08/16 08:03:08;;;;;;;7.73;3.77;;;;;;;26.22;47.79;98531.16;8614809;23;20210;-78
2021/08/16 08:06:30;;;;;;;6.00;4.70;;;;;;;26.40;47.37;98531.00;8615296;23;20188;-78
2021/08/16 08:09:51;;;;;;;5.77;4.10;;;;;;;26.52;46.97;98534.00;8615179;23;20178;-79
2021/08/16 08:13:14;;;;;;;7.33;3.80;;;;;;;27.18;45.67;98544.25;8615145;23;20219;-79
2021/08/16 08:16:37;;;;;;;8.67;3.93;;;;;;;26.76;46.19;98542.81;8629886;23;20181;-78
2021/08/16 08:19:59;;;;;;;7.17;4.20;;;;;;;27.13;44.94;98547.09;8627845;23;20601;-79
2021/08/16 08:23:20;;;;;;;5.00;3.83;;;;;;;26.88;44.83;98540.28;8614215;23;20205;-79
2021/08/16 08:26:42;;;;;;;7.33;3.90;;;;;;;26.72;45.20;98533.50;8614796;23;20186;-79
2021/08/16 08:30:05;;;;;;;5.27;3.97;;;;;;;26.92;44.37;98537.69;8613677;23;20189;-79
2021/08/16 08:33:28;;;;;;;4.63;3.50;;;;;;;26.55;44.87;98532.59;8611199;23;20214;-79
2021/08/16 08:36:50;;;;;;;3.37;3.07;;;;;;;26.78;43.65;98543.31;8613514;23;20193;-80
2021/08/16 08:40:12;;;;;;;7.07;4.07;;;;;;;26.30;44.37;98547.81;8613314;23;20178;-79
2021/08/16 08:43:34;;;;;;;5.77;4.20;;;;;;;25.89;43.63;98535.22;8613115;23;20205;-81
2021/08/16 08:46:56;;;;;;;5.77;4.43;;;;;;;26.43;43.26;98540.59;8614459;23;20628;-79
2021/08/16 08:50:20;;;;;;;5.47;3.67;;;;;;;26.67;41.93;98541.94;8612512;23;20188;-79
2021/08/16 08:53:41;;;;;;;5.53;4.17;;;;;;;27.19;41.77;98548.63;8614154;23;20186;-79
2021/08/16 08:57:04;;;;;;;6.37;4.10;;;;;;;28.22;39.61;98537.53;8613233;23;20183;-81
2021/08/16 09:00:25;;;;;;;5.13;3.93;;;;;;;28.73;38.64;98529.16;8613081;23;20178;-79
2021/08/16 09:03:49;;;;;;;6.60;4.17;;;;;;;28.59;38.42;98524.94;8613460;23;20657;-79
2021/08/16 09:07:12;;;;;;;6.27;4.10;;;;;;;27.96;38.97;98531.13;8613177;23;20261;-79
2021/08/16 09:10:33;;;;;;;6.23;4.47;;;;;;;28.31;39.74;98526.44;8612341;23;20210;-79
2021/08/16 09:13:57;;;;;;;6.10;4.57;;;;;;;27.62;39.75;98533.00;8612810;23;20180;-79
2021/08/16 09:17:27;;;;;;;6.47;4.43;;;;;;;27.94;39.64;98532.59;8613210;23;20500;-79
2021/08/16 09:20:53;;;;;;;5.40;4.13;;;;;;;28.03;39.91;98533.44;8612359;23;20545;-79
2021/08/16 09:24:23;;;;;;;7.13;4.30;;;;;;;28.17;39.65;98543.22;8613322;23;20523;-79
2021/08/16 09:27:46;;;;;;;6.47;4.47;;;;;;;27.48;40.38;98546.94;8612822;23;20498;-79
2021/08/16 09:31:12;;;;;;;6.53;4.80;;;;;;;27.03;40.16;98541.84;8609694;23;20212;-79
2021/08/16 09:34:35;;;;;;;7.10;4.50;;;;;;;27.08;40.47;98539.72;8613269;23;20515;-79
2021/08/16 09:37:57;;;;;;;5.03;4.50;;;;;;;27.07;40.82;98542.84;8612615;23;20229;-79
2021/08/16 09:41:24;;;;;;;7.23;4.90;;;;;;;27.05;40.40;98539.56;8611796;23;20203;-79
2021/08/16 09:44:47;;;;;;;6.07;4.77;;;;;;;27.21;40.23;98544.41;8612121;22;20188;-83
2021/08/16 09:48:20;;;;;;;8.47;4.23;;;;;;;26.18;41.33;98539.25;8673190;22;20160;-83
2021/08/16 09:51:42;;;;;;;6.30;4.63;;;;;;;26.12;41.28;98528.66;8660926;22;20607;-86
2021/08/16 09:55:04;;;;;;;8.63;5.33;;;;;;;26.27;41.33;98511.69;8664323;22;20205;-85
2021/08/16 09:58:27;;;;;;;7.00;4.57;;;;;;;27.20;39.40;98519.81;8682340;22;20185;-88
2021/08/16 10:01:52;;;;;;;6.07;4.10;;;;;;;26.51;40.50;98501.13;8665740;22;20204;-88
2021/08/16 10:05:16;;;;;;;7.67;4.27;;;;;;;26.54;41.01;98511.59;8669445;22;20201;-88
2021/08/16 10:08:40;;;;;;;7.60;4.90;;;;;;;26.61;42.31;98507.25;8675163;22;20644;-88
2021/08/16 10:12:05;;;;;;;5.70;4.43;;;;;;;26.46;42.19;98513.16;8664605;22;20184;-92
2021/08/16 10:19:37;;;;;;;7.37;4.27;;;;;;;26.51;42.83;98526.00;8679415;22;20212;-90
2021/08/16 10:23:01;;;;;;;11.50;5.13;;;;;;;26.86;41.13;98527.91;8673174;22;20191;-92
2021/08/16 10:26:30;;;;;;;6.70;3.90;;;;;;;27.00;39.74;98495.41;8683680;22;20196;-90
2021/08/16 10:29:52;;;;;;;7.70;4.20;;;;;;;26.55;40.52;98491.13;8685114;22;20170;-91
2021/08/16 10:33:27;;;;;;;7.37;3.63;;;;;;;26.57;40.77;98505.44;8689828;22;20180;-89
2021/08/16 10:36:56;;;;;;;6.63;4.00;;;;;;;26.09;40.48;98476.75;8689058;22;20197;-91
2021/08/16 10:40:22;;;;;;;5.30;3.73;;;;;;;26.36;39.34;98521.69;8685465;22;20180;-91
2021/08/16 10:43:44;;;;;;;5.10;4.00;;;;;;;26.67;38.55;98505.19;8691566;22;20191;-91
2021/08/16 10:47:06;;;;;;;5.33;3.90;;;;;;;26.13;39.76;98516.47;8702121;22;20715;-91
2021/08/16 10:50:41;;;;;;;8.67;3.87;;;;;;;25.55;40.34;98468.59;8673312;22;20304;-89
2021/08/16 10:54:33;;;;;;;5.90;3.80;;;;;;;26.46;40.41;98512.31;8688384;22;20190;-88
2021/08/16 10:58:01;;;;;;;5.63;4.37;;;;;;;27.29;39.63;98513.16;8690129;22;20158;-89
2021/08/16 11:14:40;;;;;;;7.27;3.77;;;;;;;26.66;37.96;98507.13;8444920;23;20225;-91
2021/08/16 11:18:18;;;;;;;6.47;3.93;;;;;;;26.28;38.58;98513.31;8436809;23;20177;-88
2021/08/16 11:21:41;;;;;;;8.73;4.17;;;;;;;25.80;40.54;98501.16;8431149;23;20164;-88
2021/08/16 11:25:05;;;;;;;5.00;3.70;;;;;;;26.28;39.52;98472.69;8410261;23;20671;-88
2021/08/16 11:28:32;;;;;;;4.77;3.70;;;;;;;26.27;39.56;98451.69;8424938;23;20178;-86
2021/08/16 11:31:58;;;;;;;7.40;3.23;;;;;;;26.67;39.06;98494.13;8429589;23;20683;-86
2021/08/16 11:35:20;;;;;;;7.70;3.50;;;;;;;26.97;38.84;98483.06;8408733;23;20349;-88
2021/08/16 11:38:44;;;;;;;8.67;3.57;;;;;;;27.87;37.09;98483.19;8418942;23;20192;-88
2021/08/16 11:42:07;;;;;;;6.97;3.23;;;;;;;26.92;37.73;98480.41;8406804;23;20217;-88
2021/08/16 11:45:30;;;;;;;4.97;3.67;;;;;;;26.39;38.96;98498.94;8510169;23;20692;-88
2021/08/16 11:48:53;;;;;;;7.87;3.67;;;;;;;26.78;38.30;98473.34;8552178;22;20182;-89
2021/08/16 11:52:21;;;;;;;8.23;3.60;;;;;;;26.89;38.29;98480.25;8674088;22;20184;-88
2021/08/16 11:56:33;;;;;;;5.93;3.40;;;;;;;26.73;38.12;98481.78;8663477;22;20197;-87
2021/08/16 12:00:05;;;;;;;5.43;3.60;;;;;;;27.64;37.55;98484.44;8666471;22;20274;-88
2021/08/16 12:03:27;;;;;;;5.30;3.67;;;;;;;27.29;37.61;98409.91;8668331;22;20195;-86
2021/08/16 12:06:49;;;;;;;6.83;3.63;;;;;;;27.90;36.80;98470.66;8667802;22;20206;-88
2021/08/16 12:10:16;;;;;;;4.47;3.33;;;;;;;28.39;35.80;98443.25;8666407;22;20177;-88
2021/08/16 12:13:38;;;;;;;4.43;3.53;;;;;;;27.56;35.74;98417.94;8663437;22;20183;-88
2021/08/16 12:17:01;;;;;;;5.70;3.40;;;;;;;27.28;36.86;98470.00;8677743;22;20205;-87
2021/08/16 12:20:23;;;;;;;5.07;3.67;;;;;;;28.08;35.68;98484.16;8684036;22;20180;-87
2021/08/16 12:23:53;;;;;;;6.23;3.63;;;;;;;27.16;37.37;98468.97;8670641;22;20209;-87
2021/08/16 12:27:23;;;;;;;6.87;3.77;;;;;;;27.61;37.18;98459.34;8670587;22;20276;-86
2021/08/16 12:31:02;;;;;;;5.47;3.57;;;;;;;27.41;37.10;98463.53;8670808;22;20236;-90
2021/08/16 12:34:34;;;;;;;3.97;3.20;;;;;;;27.26;37.13;98421.63;8675983;22;20181;-87
2021/08/16 12:38:00;;;;;;;4.53;3.40;;;;;;;27.65;36.53;98447.28;8681191;22;20498;-87
2021/08/16 12:41:23;;;;;;;5.03;3.23;;;;;;;28.12;35.63;98462.16;8664402;22;20465;-87
2021/08/16 12:44:52;;;;;;;8.73;3.50;;;;;;;27.43;36.26;98458.47;8676997;22;20255;-84
2021/08/16 12:48:13;;;;;;;5.33;3.17;;;;;;;28.15;35.88;98448.47;8667731;22;20215;-84
2021/08/16 12:51:36;;;;;;;4.47;3.20;;;;;;;28.32;35.25;98467.03;8662847;22;20182;-87
2021/08/16 12:54:58;;;;;;;6.30;3.77;;;;;;;27.96;35.45;98467.38;8664822;22;20199;-87
2021/08/16 12:58:21;;;;;;;4.43;3.10;;;;;;;27.35;36.98;98486.97;8664124;22;20495;-87
2021/08/16 13:01:42;;;;;;;5.90;3.43;;;;;;;26.37;38.69;98458.91;8679137;22;20216;-87
2021/08/16 13:05:05;;;;;;;4.93;3.20;;;;;;;27.19;38.13;98477.47;8679414;22;20201;-88
2021/08/16 13:08:28;;;;;;;4.73;3.30;;;;;;;27.99;36.43;98477.00;8664856;22;20188;-88
2021/08/16 13:11:49;;;;;;;6.30;3.70;;;;;;;26.97;38.13;98458.16;8666143;22;20513;-87
2021/08/16 13:15:11;;;;;;;4.33;3.37;;;;;;;27.85;36.92;98462.50;8663267;22;20201;-86
2021/08/16 13:18:33;;;;;;;4.30;3.70;;;;;;;27.85;36.23;98474.38;8677033;22;20184;-86
2021/08/16 13:22:01;;;;;;;7.13;4.20;;;;;;;27.45;35.89;98470.06;8662809;22;20179;-87
2021/08/16 13:25:24;;;;;;;4.93;3.60;;;;;;;27.55;35.57;98455.09;8666497;22;20202;-86
2021/08/16 13:28:46;;;;;;;4.50;3.37;;;;;;;27.75;35.70;98473.84;8681449;22;20187;-86
2021/08/16 13:32:10;;;;;;;4.40;3.23;;;;;;;27.40;35.70;98450.81;8665787;22;20236;-87
2021/08/16 13:35:32;;;;;;;4.27;3.57;;;;;;;27.34;36.40;98477.03;8679357;22;20201;-86
2021/08/16 13:38:53;;;;;;;6.20;3.50;;;;;;;26.68;37.25;98437.66;8662268;22;20182;-86
2021/08/16 13:42:19;;;;;;;8.33;3.77;;;;;;;26.88;37.28;98418.53;8665455;22;20182;-86
2021/08/16 13:45:41;;;;;;;5.97;3.67;;;;;;;26.78;37.13;98440.16;8663355;22;20209;-86
2021/08/16 13:49:05;;;;;;;4.83;3.67;;;;;;;27.23;35.96;98461.00;8662696;22;20185;-86
2021/08/16 13:52:26;;;;;;;4.13;3.30;;;;;;;26.79;35.85;98467.47;8658196;22;20181;-89
2021/08/16 13:55:48;;;;;;;6.93;4.00;;;;;;;26.62;35.12;98455.53;8659409;22;20209;-87
2021/08/16 13:59:11;;;;;;;5.93;3.80;;;;;;;27.04;34.53;98464.03;8655626;22;20194;-88
2021/08/16 14:02:33;;;;;;;4.80;3.47;;;;;;;27.12;33.79;98484.56;8655999;22;20265;-87
2021/08/16 14:05:55;;;;;;;4.03;3.63;;;;;;;27.01;32.77;98488.75;8657989;22;20201;-88
2021/08/16 14:09:17;;;;;;;5.73;3.83;;;;;;;27.25;32.58;98472.59;8672295;22;20174;-88
2021/08/16 14:12:40;;;;;;;4.57;3.23;;;;;;;27.19;31.28;98424.84;8659613;22;20623;-88
2021/08/16 14:16:04;;;;;;;5.47;3.70;;;;;;;28.10;31.21;98462.50;8658786;22;20205;-88
2021/08/16 14:19:25;;;;;;;4.23;3.37;;;;;;;27.91;30.23;98469.50;8662862;22;20194;-88
2021/08/16 14:22:47;;;;;;;6.07;3.63;;;;;;;27.65;31.84;98465.88;8679290;22;20204;-87
2021/08/16 14:26:10;;;;;;;4.70;3.80;;;;;;;27.65;30.48;98454.78;8664198;22;20215;-88
2021/08/16 14:29:32;;;;;;;5.93;3.10;;;;;;;27.82;29.54;98460.34;8664710;22;20203;-87
2021/08/16 14:32:55;;;;;;;4.27;3.00;;;;;;;28.15;30.29;98431.84;8663794;22;20189;-87
2021/08/16 14:36:17;;;;;;;4.37;3.43;;;;;;;28.70;30.13;98441.03;8661945;22;20202;-88
2021/08/16 14:39:39;;;;;;;5.23;3.33;;;;;;;28.59;29.50;98455.59;8663915;22;20189;-87
2021/08/16 14:43:01;;;;;;;5.47;3.57;;;;;;;27.95;31.04;98440.81;8668298;22;20197;-85
2021/08/16 14:46:22;;;;;;;4.40;2.93;;;;;;;28.14;30.94;98468.19;8666550;22;20205;-88
2021/08/16 14:49:45;;;;;;;3.60;3.00;;;;;;;27.83;30.61;98484.19;8677185;22;20174;-87
2021/08/16 14:53:08;;;;;;;4.47;3.27;;;;;;;28.15;30.64;98465.13;8663114;22;20185;-87
2021/08/16 14:56:29;;;;;;;5.77;3.33;;;;;;;27.41;31.65;98435.00;8663029;22;20208;-87
2021/08/16 14:59:51;;;;;;;5.03;3.17;;;;;;;27.61;31.61;98495.34;8675496;22;20180;-87
2021/08/16 15:03:13;;;;;;;5.50;3.53;;;;;;;27.95;31.43;98487.13;8678354;22;20542;-88
2021/08/16 15:06:36;;;;;;;5.10;2.80;;;;;;;27.44;32.13;98512.75;8667768;22;20212;-88
2021/08/16 15:09:58;;;;;;;5.23;3.37;;;;;;;26.85;34.17;98506.91;8665876;22;20212;-88
2021/08/16 15:13:20;;;;;;;5.33;3.20;;;;;;;27.17;34.07;98506.59;8679837;22;20168;-88
2021/08/16 15:16:42;;;;;;;6.53;3.50;;;;;;;27.01;34.26;98491.53;8664641;22;20680;-87
2021/08/16 15:20:05;;;;;;;5.80;3.07;;;;;;;27.88;32.97;98511.72;8677020;22;20185;-87
2021/08/16 15:23:29;;;;;;;5.43;3.73;;;;;;;27.74;33.61;98489.69;8665307;22;20204;-88
2021/08/16 15:26:51;;;;;;;4.60;3.13;;;;;;;28.05;32.59;98526.41;8665562;22;20198;-87
2021/08/16 15:30:13;;;;;;;4.47;2.93;;;;;;;27.19;32.58;98463.63;8678566;22;20174;-87
2021/08/16 15:33:35;;;;;;;6.17;3.33;;;;;;;28.37;31.58;98523.19;8675537;22;20519;-88
2021/08/16 15:36:56;;;;;;;3.80;2.80;;;;;;;28.07;32.22;98529.66;8663300;22;20202;-87
2021/08/16 15:40:20;;;;;;;5.93;3.13;;;;;;;27.96;31.75;98533.09;8666475;22;20514;-87
2021/08/16 15:43:45;;;;;;;4.93;3.20;;;;;;;27.31;32.59;98505.34;8667512;22;20205;-88
2021/08/16 15:47:07;;;;;;;5.43;3.10;;;;;;;26.51;32.74;98443.88;8609380;22;20212;-80
2021/08/16 15:50:28;;;;;;;4.93;3.00;;;;;;;26.70;32.82;98543.25;8596796;23;20211;-81
2021/08/16 15:53:50;;;;;;;4.30;2.90;;;;;;;26.91;32.44;98556.28;8587533;23;20179;-81
2021/08/16 15:57:13;;;;;;;5.80;3.37;;;;;;;26.86;33.04;98563.88;8599228;23;20262;-81
2021/08/16 16:00:35;;;;;;;6.10;2.90;;;;;;;26.92;33.45;98555.13;8585306;23;20183;-81
2021/08/16 16:03:57;;;;;;;4.20;2.93;;;;;;;26.51;33.73;98510.25;8585461;23;20199;-81
2021/08/16 16:07:18;;;;;;;4.47;2.57;;;;;;;26.91;33.81;98542.44;8586159;23;20202;-81
2021/08/16 16:10:41;;;;;;;4.63;3.30;;;;;;;26.72;33.73;98518.88;8585587;23;20185;-81
2021/08/16 16:14:04;;;;;;;4.03;2.50;;;;;;;26.72;34.53;98536.28;8585624;23;20703;-80
2021/08/16 16:17:25;;;;;;;5.90;3.00;;;;;;;26.92;34.08;98551.53;8585907;23;20208;-80
2021/08/16 16:20:47;;;;;;;4.23;2.83;;;;;;;26.97;34.05;98526.50;8585969;23;20197;-80
2021/08/16 16:24:09;;;;;;;3.57;2.70;;;;;;;26.51;35.08;98537.91;8581009;23;20208;-81
2021/08/16 16:27:31;;;;;;;5.37;2.77;;;;;;;26.57;35.41;98538.63;8586475;23;20248;-80
2021/08/16 16:30:54;;;;;;;4.00;2.50;;;;;;;26.54;34.81;98540.06;8585192;23;20510;-81
2021/08/16 16:34:15;;;;;;;5.17;2.93;;;;;;;26.55;35.20;98560.25;8585778;23;20185;-80
2021/08/16 16:37:37;;;;;;;3.57;2.53;;;;;;;26.76;34.66;98550.28;8586029;23;20695;-80
2021/08/16 16:40:59;;;;;;;3.30;2.60;;;;;;;26.46;35.42;98542.72;8584862;23;20183;-80
2021/08/16 16:44:20;;;;;;;6.60;2.90;;;;;;;26.31;36.26;98535.63;8583883;23;20663;-80
2021/08/16 16:47:43;;;;;;;2.93;2.63;;;;;;;26.43;36.21;98527.59;8617144;23;20220;-80
2021/08/16 16:51:06;;;;;;;4.23;2.87;;;;;;;26.28;35.82;98541.78;8626168;23;20203;-80
2021/08/16 16:54:27;;;;;;;4.07;2.47;;;;;;;26.52;35.45;98536.78;8627194;23;20181;-81
2021/08/16 16:57:49;;;;;;;5.77;3.00;;;;;;;26.30;36.01;98542.28;8625590;22;20212;-81
2021/08/16 17:01:10;;;;;;;5.27;2.83;;;;;;;26.11;36.51;98538.03;8623171;23;20182;-81
2021/08/16 17:04:33;;;;;;;3.67;2.73;;;;;;;25.72;37.12;98526.75;8625905;23;20201;-80
2021/08/16 17:07:55;;;;;;;5.97;2.80;;;;;;;26.34;36.28;98545.25;8625619;22;20205;-80
2021/08/16 17:11:17;;;;;;;4.63;2.50;;;;;;;25.60;36.10;98546.59;8624764;23;20184;-80
2021/08/16 17:14:38;;;;;;;5.17;2.40;;;;;;;25.85;35.58;98539.72;8627317;23;20173;-80
2021/08/16 17:18:00;;;;;;;4.00;2.47;;;;;;;25.82;36.14;98545.84;8624634;22;20203;-80
2021/08/16 17:21:25;;;;;;;3.83;2.17;;;;;;;25.76;36.16;98549.84;8625742;23;20184;-82
2021/08/16 17:24:47;;;;;;;4.23;2.40;;;;;;;25.27;37.00;98556.13;8625049;23;20205;-80
2021/08/16 17:28:08;;;;;;;3.83;2.17;;;;;;;25.19;36.74;98556.00;8624813;22;20339;-80
2021/08/16 17:31:31;;;;;;;4.17;1.83;;;;;;;24.86;37.55;98563.50;8629180;23;20169;-80
2021/08/16 17:34:53;;;;;;;2.43;1.97;;;;;;;25.10;37.48;98572.44;8628033;22;20182;-81
2021/08/16 17:38:16;;;;;;;2.20;2.00;;;;;;;25.15;37.57;98588.91;8646487;23;20180;-81
2021/08/16 17:41:37;;;;;;;2.33;2.10;;;;;;;25.32;37.44;98566.25;8627496;23;20646;-81
2021/08/16 17:44:59;;;;;;;2.50;1.90;;;;;;;25.05;37.78;98575.28;8621487;22;20535;-79
2021/08/16 17:48:21;;;;;;;4.07;2.20;;;;;;;25.35;37.50;98571.97;8617037;23;20166;-79
2021/08/16 17:51:45;;;;;;;3.07;2.20;;;;;;;25.54;37.46;98575.44;8617894;23;20691;-80
2021/08/16 17:55:09;;;;;;;2.67;1.90;;;;;;;24.61;38.44;98574.94;8619413;22;20314;-79
2021/08/16 17:58:31;;;;;;;2.90;1.93;;;;;;;24.82;38.24;98594.72;8618641;23;20182;-80
2021/08/16 18:01:53;;;;;;;4.30;2.00;;;;;;;24.80;38.19;98600.56;8621890;23;20184;-80
2021/08/16 18:05:15;;;;;;;2.87;2.07;;;;;;;25.24;37.67;98606.41;8621541;22;20204;-80
2021/08/16 18:08:36;;;;;;;5.20;2.17;;;;;;;24.76;38.50;98573.88;8634850;22;20178;-80
2021/08/16 18:11:59;;;;;;;3.60;1.90;;;;;;;25.46;37.29;98614.00;8621482;23;20514;-80
2021/08/16 18:15:21;;;;;;;4.13;2.00;;;;;;;25.69;37.28;98610.22;8620697;22;20200;-80
2021/08/16 18:18:43;;;;;;;3.13;2.07;;;;;;;25.26;37.83;98628.19;8619988;23;20181;-80
2021/08/16 18:22:05;;;;;;;2.63;2.17;;;;;;;24.72;39.37;98648.13;8620913;23;20187;-80
2021/08/16 18:25:27;;;;;;;5.07;2.30;;;;;;;24.72;39.41;98634.31;8622171;22;20210;-79
2021/08/16 18:28:50;;;;;;;3.63;1.80;;;;;;;24.68;39.24;98654.53;8619292;23;20185;-80
2021/08/16 18:32:12;;;;;;;3.50;2.00;;;;;;;24.23;40.34;98658.75;8611556;23;20196;-81
2021/08/16 18:35:34;;;;;;;3.00;2.13;;;;;;;24.25;40.25;98662.03;8622197;22;20211;-79
2021/08/16 18:38:56;;;;;;;2.00;1.73;;;;;;;24.50;39.93;98672.72;8617233;23;20174;-79
2021/08/16 18:42:19;;;;;;;2.30;2.00;;;;;;;23.87;40.96;98676.00;8617871;23;20186;-79
2021/08/16 18:45:42;;;;;;;4.60;1.90;;;;;;;23.77;40.64;98654.91;8622219;22;20202;-80
2021/08/16 18:49:04;;;;;;;3.67;2.07;;;;;;;23.88;41.16;98689.50;8645636;23;20183;-79
2021/08/16 18:52:26;;;;;;;3.67;2.00;;;;;;;23.93;40.83;98689.44;8633332;23;20190;-80
2021/08/16 18:55:47;;;;;;;3.83;1.97;;;;;;;23.90;40.54;98661.69;8620830;22;20209;-79
2021/08/16 18:59:09;;;;;;;3.93;2.10;;;;;;;23.71;42.82;98737.88;8618392;23;20183;-80
2021/08/16 19:02:32;;;;;;;3.43;1.90;;;;;;;23.86;46.58;98738.53;8629773;23;20174;-79
2021/08/16 19:05:54;;;;;;;4.87;2.20;;;;;;;23.24;49.46;98730.31;8618769;22;20206;-79
2021/08/16 19:09:16;;;;;;;5.03;2.37;;;;;;;23.52;49.54;98743.28;8622264;23;20551;-79
2021/08/16 19:12:38;;;;;;;3.93;2.10;;;;;;;23.06;50.74;98764.00;8621764;23;20183;-79
2021/08/16 19:16:00;;;;;;;2.97;2.17;;;;;;;23.06;50.96;98769.50;8620987;22;20195;-79
2021/08/16 19:19:23;;;;;;;3.50;2.20;;;;;;;22.16;53.29;98782.88;8619989;23;20237;-79
2021/08/16 19:22:44;;;;;;;3.20;2.07;;;;;;;22.13;54.86;98786.19;8619846;23;20184;-79
2021/08/16 19:26:06;;;;;;;3.60;2.10;;;;;;;21.91;56.15;98797.50;8619627;22;20204;-80
2021/08/16 19:29:28;;;;;;;3.57;2.17;;;;;;;22.08;57.38;98819.97;8619082;23;20184;-79
2021/08/16 19:32:49;;;;;;;2.77;2.20;;;;;;;21.65;59.37;98826.03;8620607;23;20510;-79
2021/08/16 19:36:12;;;;;;;4.00;2.20;;;;;;;21.60;60.32;98830.72;8620430;22;20226;-79
2021/08/16 19:39:34;;;;;;;3.90;2.17;;;;;;;20.92;62.91;98882.47;8621308;23;20184;-80
2021/08/16 19:42:55;;;;;;;11.03;9.33;;;;;;;20.52;60.78;98899.53;8622466;23;20184;-79